createdAt,value
2019-04-22T00:01:25.904Z,57.79
2019-04-22T00:04:04.860Z,58.07
2019-04-22T00:06:51.595Z,57.68
2019-04-22T00:09:30.968Z,57.38
2019-04-22T00:12:06.366Z,57.18
2019-04-22T00:14:30.797Z,57.33
2019-04-22T00:17:30.097Z,55.09
2019-04-22T00:19:45.675Z,55.31
2019-04-22T00:22:22.178Z,56.08
2019-04-22T00:24:52.905Z,55.11
2019-04-22T00:27:28.212Z,55.81
2019-04-22T00:32:30.590Z,56.34
2019-04-22T00:35:07.140Z,57.13
2019-04-22T00:37:46.256Z,56.53
2019-04-22T00:40:14.901Z,56.84
2019-04-22T00:42:50.305Z,57.82
2019-04-22T00:45:39.988Z,57.68
2019-04-22T00:47:50.368Z,58.04
2019-04-22T00:53:04.520Z,57.62
2019-04-22T00:55:39.175Z,57.35
2019-04-22T00:58:14.215Z,55.70
2019-04-22T01:00:49.347Z,56.17
2019-04-22T01:03:20.699Z,57.45
2019-04-22T01:05:46.841Z,56.98
2019-04-22T01:08:36.689Z,57.04
2019-04-22T01:11:06.221Z,55.37
2019-04-22T01:13:34.685Z,55.87
2019-04-22T01:16:09.479Z,57.34
2019-04-22T01:18:38.000Z,58.22
2019-04-22T01:21:24.372Z,58.28
2019-04-22T01:23:41.163Z,58.29
2019-04-22T01:26:15.942Z,58.34
2019-04-22T01:28:46.170Z,56.63
2019-04-22T01:31:13.530Z,57.39
2019-04-22T01:33:47.650Z,57.67
2019-04-22T01:36:30.164Z,56.37
2019-04-22T01:39:10.436Z,57.28
2019-04-22T01:44:27.876Z,56.85
2019-04-22T01:49:27.566Z,55.78
2019-04-22T01:57:06.240Z,54.97
2019-04-22T01:59:31.510Z,55.81
2019-04-22T02:02:19.140Z,56.13
2019-04-22T02:05:10.613Z,56.04
2019-04-22T02:07:26.268Z,56.30
2019-04-22T02:09:59.821Z,57.20
2019-04-22T02:12:29.854Z,57.16
2019-04-22T02:14:58.067Z,56.78
2019-04-22T02:17:38.288Z,57.43
2019-04-22T02:23:33.535Z,57.18
2019-04-22T02:25:59.315Z,58.11
2019-04-22T02:28:34.000Z,57.78
2019-04-22T02:46:40.745Z,55.07
2019-04-22T02:49:04.211Z,55.03
2019-04-22T02:51:32.645Z,55.19
2019-04-22T02:54:27.446Z,56.46
2019-04-22T02:56:31.951Z,56.98
2019-04-22T03:06:39.778Z,57.41
2019-04-22T03:12:02.743Z,56.92
2019-04-22T03:14:46.008Z,55.82
2019-04-22T03:17:03.139Z,57.42
2019-04-22T03:19:57.233Z,58.16
2019-04-22T03:22:16.592Z,58.57
2019-04-22T03:24:53.876Z,59.47
2019-04-22T03:37:53.053Z,56.44
2019-04-22T03:48:04.336Z,56.73
2019-04-22T03:55:43.352Z,51.38
2019-04-22T03:58:18.148Z,50.96
2019-04-22T04:03:19.317Z,53.25
2019-04-22T04:08:33.394Z,54.32
2019-04-22T04:10:57.570Z,52.12
2019-04-22T04:13:41.648Z,48.57
2019-04-22T04:16:10.841Z,50.50
2019-04-22T04:19:07.757Z,50.39
2019-04-22T04:24:19.896Z,47.75
2019-04-22T04:26:45.886Z,47.07
2019-04-22T04:29:13.752Z,45.57
2019-04-22T04:36:42.173Z,47.50
2019-04-22T04:41:59.614Z,42.80
2019-04-22T04:44:22.770Z,42.82
2019-04-22T04:47:06.036Z,44.97
2019-04-22T04:54:41.463Z,44.00
2019-04-22T04:57:05.161Z,45.20
2019-04-22T05:02:19.758Z,44.75
2019-04-22T05:07:33.662Z,41.33
2019-04-22T05:09:59.714Z,43.46
2019-04-22T05:15:03.942Z,42.24
2019-04-22T05:17:35.611Z,39.28
2019-04-22T05:20:13.375Z,39.71
2019-04-22T05:22:39.714Z,43.03
2019-04-22T05:25:15.044Z,40.68
2019-04-22T05:32:49.098Z,40.62
2019-04-22T05:35:26.681Z,36.67
2019-04-22T05:38:02.884Z,36.43
2019-04-22T05:40:28.031Z,36.49
2019-04-22T05:43:05.672Z,37.05
2019-04-22T05:45:40.345Z,36.82
2019-04-22T05:48:15.007Z,36.52
2019-04-22T05:50:45.191Z,34.51
2019-04-22T05:53:14.924Z,35.45
2019-04-22T05:55:56.906Z,34.36
2019-04-22T05:58:32.930Z,33.10
2019-04-22T06:03:46.610Z,33.29
2019-04-22T06:08:51.276Z,41.91
2019-04-22T06:11:28.472Z,45.67
2019-04-22T06:13:59.190Z,45.67
2019-04-22T06:16:40.205Z,39.18
2019-04-22T06:19:21.550Z,52.58
2019-04-22T06:21:41.817Z,52.94
2019-04-22T06:24:26.015Z,43.76
2019-04-22T06:27:01.579Z,43.88
2019-04-22T06:29:23.715Z,47.73
2019-04-22T06:32:19.854Z,51.83
2019-04-22T06:34:30.755Z,40.36
2019-04-22T06:37:07.296Z,28.92
2019-04-22T06:42:16.373Z,39.11
2019-04-22T06:44:47.932Z,40.35
2019-04-22T06:47:38.023Z,47.30
2019-04-22T06:49:52.605Z,43.30
2019-04-22T06:54:59.452Z,34.19
2019-04-22T06:57:30.253Z,39.89
2019-04-22T07:00:05.653Z,38.30
2019-04-22T07:02:46.377Z,44.05
2019-04-22T07:05:08.313Z,36.95
2019-04-22T07:07:45.568Z,42.60
2019-04-22T07:10:35.036Z,40.07
2019-04-22T07:12:52.326Z,38.99
2019-04-22T07:15:36.983Z,37.54
2019-04-22T07:23:10.585Z,35.93
2019-04-22T07:25:41.372Z,37.83
2019-04-22T07:28:11.228Z,34.34
2019-04-22T07:30:51.215Z,35.38
2019-04-22T07:36:19.528Z,33.49
2019-04-22T07:40:56.224Z,30.63
2019-04-22T07:46:07.175Z,37.02
2019-04-22T07:51:13.401Z,31.29
2019-04-22T07:53:50.860Z,31.36
2019-04-22T07:56:18.459Z,34.45
2019-04-22T07:58:58.584Z,34.78
2019-04-22T08:01:26.610Z,36.64
2019-04-22T08:04:13.168Z,38.45
2019-04-22T08:06:36.200Z,37.70
2019-04-22T08:09:13.971Z,37.10
2019-04-22T08:14:14.643Z,45.87
2019-04-22T08:16:51.355Z,33.90
2019-04-22T08:19:28.126Z,30.07
2019-04-22T08:21:56.305Z,34.24
2019-04-22T08:24:35.969Z,32.37
2019-04-22T08:27:04.489Z,30.08
2019-04-22T08:30:00.105Z,28.73
2019-04-22T08:32:28.419Z,34.75
2019-04-22T08:34:42.541Z,27.14
2019-04-22T08:37:41.506Z,30.92
2019-04-22T08:39:49.977Z,28.34
2019-04-22T08:42:35.404Z,30.43
2019-04-22T08:47:30.891Z,35.55
2019-04-22T08:52:41.962Z,36.91
2019-04-22T08:58:04.905Z,31.29
2019-04-22T09:00:20.353Z,34.46
2019-04-22T09:02:56.356Z,26.48
2019-04-22T09:05:46.020Z,25.27
2019-04-22T09:08:09.491Z,27.23
2019-04-22T09:10:39.323Z,30.46
2019-04-22T09:15:45.511Z,32.39
2019-04-22T09:18:24.706Z,32.01
2019-04-22T09:21:01.137Z,26.84
2019-04-22T09:25:57.583Z,25.18
2019-04-22T09:28:31.150Z,25.83
2019-04-22T09:31:06.821Z,30.72
2019-04-22T09:33:36.912Z,27.56
2019-04-22T09:36:16.570Z,25.08
2019-04-22T09:38:41.752Z,28.47
2019-04-22T09:41:22.218Z,26.21
2019-04-22T09:43:52.167Z,26.92
2019-04-22T09:46:32.836Z,26.92
2019-04-22T09:51:31.163Z,24.28
2019-04-22T09:54:19.764Z,28.74
2019-04-22T09:59:18.771Z,29.88
2019-04-22T10:01:40.985Z,27.87
2019-04-22T10:04:11.335Z,29.81
2019-04-22T10:06:45.643Z,27.65
2019-04-22T10:11:58.697Z,28.29
2019-04-22T10:17:07.809Z,33.58
2019-04-22T10:19:43.909Z,30.12
2019-04-22T10:22:20.034Z,27.74
2019-04-22T10:24:45.004Z,28.72
2019-04-22T10:27:20.854Z,28.72
2019-04-22T10:32:27.998Z,31.32
2019-04-22T10:34:45.846Z,23.75
2019-04-22T10:37:15.208Z,26.84
2019-04-22T10:39:54.106Z,24.04
2019-04-22T10:42:20.818Z,26.97
2019-04-22T10:44:53.800Z,24.52
2019-04-22T10:47:25.838Z,27.94
2019-04-22T10:49:58.285Z,29.23
2019-04-22T10:52:29.933Z,25.94
2019-04-22T10:55:03.398Z,27.23
2019-04-22T10:57:36.212Z,23.31
2019-04-22T11:00:09.698Z,28.21
2019-04-22T11:02:41.575Z,24.17
2019-04-22T11:05:14.431Z,24.44
2019-04-22T11:07:51.963Z,29.63
2019-04-22T11:10:35.482Z,25.76
2019-04-22T11:12:54.599Z,24.42
2019-04-22T11:15:26.669Z,29.21
2019-04-22T11:17:59.727Z,24.41
2019-04-22T11:20:33.759Z,26.41
2019-04-22T11:23:06.850Z,24.24
2019-04-22T11:25:39.546Z,25.45
2019-04-22T11:28:11.821Z,25.51
2019-04-22T11:30:44.614Z,29.49
2019-04-22T11:33:16.478Z,29.57
2019-04-22T11:35:48.386Z,26.08
2019-04-22T11:38:20.436Z,23.63
2019-04-22T11:40:55.501Z,24.88
2019-04-22T11:43:26.209Z,29.52
2019-04-22T11:45:59.573Z,26.63
2019-04-22T11:48:31.482Z,22.32
2019-04-22T11:51:04.394Z,25.41
2019-04-22T11:53:36.593Z,26.51
2019-04-22T11:56:08.978Z,27.20
2019-04-22T11:58:40.872Z,23.45
2019-04-22T12:01:13.143Z,25.03
2019-04-22T12:03:46.278Z,28.81
2019-04-22T12:06:19.882Z,30.17
2019-04-22T12:08:51.978Z,26.10
2019-04-22T12:11:26.158Z,29.20
2019-04-22T12:13:57.963Z,23.82
2019-04-22T12:16:30.042Z,26.07
2019-04-22T12:19:03.050Z,28.32
2019-04-22T12:21:35.258Z,30.06
2019-04-22T12:24:06.959Z,25.82
2019-04-22T12:26:40.069Z,25.00
2019-04-22T12:29:13.080Z,27.24
2019-04-22T12:31:45.234Z,27.41
2019-04-22T12:34:17.377Z,28.16
2019-04-22T12:36:51.077Z,24.69
2019-04-22T12:39:23.249Z,24.17
2019-04-22T12:41:56.171Z,24.93
2019-04-22T12:44:30.501Z,22.08
2019-04-22T12:47:04.376Z,26.75
2019-04-22T12:49:38.328Z,25.88
2019-04-22T12:52:10.459Z,23.98
2019-04-22T12:54:42.650Z,25.43
2019-04-22T12:57:14.784Z,23.03
2019-04-22T12:59:47.784Z,31.64
2019-04-22T13:02:20.910Z,29.79
2019-04-22T13:04:54.369Z,27.35
2019-04-22T13:07:26.177Z,21.79
2019-04-22T13:09:59.243Z,22.91
2019-04-22T13:12:31.136Z,27.12
2019-04-22T13:15:05.956Z,24.94
2019-04-22T13:17:37.961Z,21.94
2019-04-22T13:20:14.422Z,24.81
2019-04-22T13:22:45.059Z,23.97
2019-04-22T13:25:20.699Z,23.21
2019-04-22T13:27:53.297Z,24.79
2019-04-22T13:30:26.400Z,22.63
2019-04-22T13:32:58.726Z,22.12
2019-04-22T13:35:31.842Z,21.46
2019-04-22T13:38:04.774Z,25.09
2019-04-22T13:40:37.147Z,22.70
2019-04-22T13:43:09.158Z,24.37
2019-04-22T13:45:40.905Z,22.67
2019-04-22T13:48:35.901Z,23.40
2019-04-22T13:51:18.617Z,21.91
2019-04-22T13:56:15.378Z,26.30
2019-04-22T13:58:42.368Z,22.09
2019-04-22T14:01:14.672Z,25.67
2019-04-22T14:03:56.500Z,29.50
2019-04-22T14:06:29.220Z,24.17
2019-04-22T14:09:03.222Z,24.08
2019-04-22T14:11:47.450Z,24.39
2019-04-22T14:14:10.975Z,21.46
2019-04-22T14:16:44.804Z,24.82
2019-04-22T14:19:18.391Z,23.71
2019-04-22T14:21:51.233Z,22.44
2019-04-22T14:24:23.826Z,22.10
2019-04-22T14:27:13.214Z,22.00
2019-04-22T14:29:29.321Z,24.63
2019-04-22T14:32:09.266Z,23.74
2019-04-22T14:34:34.636Z,21.66
2019-04-22T14:37:06.396Z,21.73
2019-04-22T14:39:38.256Z,23.98
2019-04-22T14:42:33.452Z,26.11
2019-04-22T14:45:19.036Z,25.96
2019-04-22T14:47:41.054Z,23.25
2019-04-22T14:50:14.351Z,22.73
2019-04-22T14:52:49.160Z,24.69
2019-04-22T14:55:06.065Z,23.77
2019-04-22T14:57:32.296Z,21.68
2019-04-22T15:00:11.520Z,23.61
2019-04-22T15:02:43.919Z,22.82
2019-04-22T15:05:16.426Z,22.19
2019-04-22T15:07:48.072Z,25.16
2019-04-22T15:10:22.210Z,26.52
2019-04-22T15:12:58.470Z,24.58
2019-04-22T15:15:29.331Z,25.77
2019-04-22T15:18:19.869Z,27.20
2019-04-22T15:21:02.725Z,22.39
2019-04-22T15:23:34.865Z,27.95
2019-04-22T15:26:06.834Z,23.48
2019-04-22T15:28:39.608Z,27.60
2019-04-22T15:31:11.297Z,29.07
2019-04-22T15:33:47.962Z,32.59
2019-04-22T15:36:18.038Z,30.16
2019-04-22T15:38:51.322Z,27.68
2019-04-22T15:41:23.026Z,37.25
2019-04-22T15:43:54.686Z,37.75
2019-04-22T15:46:27.736Z,27.81
2019-04-22T15:49:00.029Z,36.45
2019-04-22T15:51:32.097Z,37.98
2019-04-22T15:54:05.465Z,31.05
2019-04-22T15:56:37.131Z,33.25
2019-04-22T15:59:28.731Z,37.35
2019-04-22T16:01:44.868Z,38.73
2019-04-22T16:04:17.049Z,38.94
2019-04-22T16:06:49.374Z,34.57
2019-04-22T16:09:22.782Z,31.03
2019-04-22T16:11:54.550Z,36.95
2019-04-22T16:14:32.822Z,26.39
2019-04-22T16:17:00.892Z,33.37
2019-04-22T16:19:32.989Z,30.46
2019-04-22T16:22:09.552Z,36.95
2019-04-22T16:24:56.393Z,34.65
2019-04-22T16:27:30.181Z,25.16
2019-04-22T16:30:03.424Z,28.44
2019-04-22T16:32:36.944Z,27.23
2019-04-22T16:35:10.535Z,33.44
2019-04-22T16:37:42.938Z,32.13
2019-04-22T16:40:14.849Z,36.08
2019-04-22T16:42:54.587Z,27.94
2019-04-22T16:45:20.023Z,28.99
2019-04-22T16:47:53.698Z,29.21
2019-04-22T16:50:25.373Z,29.51
2019-04-22T16:52:57.879Z,32.85
2019-04-22T16:55:30.770Z,29.04
2019-04-22T16:58:03.144Z,31.12
2019-04-22T17:00:36.453Z,35.82
2019-04-22T17:03:28.970Z,38.68
2019-04-22T17:06:05.528Z,38.44
2019-04-22T17:08:37.294Z,41.09
2019-04-22T17:11:09.703Z,45.03
2019-04-22T17:13:42.477Z,46.00
2019-04-22T17:16:15.984Z,39.65
2019-04-22T17:18:47.993Z,43.96
2019-04-22T17:21:19.855Z,47.75
2019-04-22T17:23:51.844Z,44.33
2019-04-22T17:26:26.359Z,48.23
2019-04-22T17:29:02.419Z,48.66
2019-04-22T17:31:31.651Z,48.92
2019-04-22T17:34:04.717Z,45.71
2019-04-22T17:36:38.308Z,48.96
2019-04-22T17:39:22.832Z,48.66
2019-04-22T17:42:03.496Z,50.26
2019-04-22T17:44:42.606Z,48.19
2019-04-22T17:47:13.857Z,48.00
2019-04-22T17:49:55.256Z,49.85
2019-04-22T17:52:25.191Z,46.10
2019-04-22T17:55:00.878Z,50.33
2019-04-22T17:57:32.683Z,50.85
2019-04-22T18:00:10.064Z,50.76
2019-04-22T18:02:32.337Z,50.80
2019-04-22T18:04:59.336Z,51.72
2019-04-22T18:07:49.074Z,53.47
2019-04-22T18:10:35.654Z,52.90
2019-04-22T18:13:07.452Z,52.98
2019-04-22T18:15:29.381Z,53.93
2019-04-22T18:18:06.854Z,48.72
2019-04-22T18:20:30.443Z,50.74
2019-04-22T18:23:00.284Z,51.47
2019-04-22T18:25:45.050Z,49.03
2019-04-22T18:28:23.864Z,41.76
2019-04-22T18:30:47.767Z,49.22
2019-04-22T18:33:24.319Z,44.96
2019-04-22T18:35:54.230Z,46.86
2019-04-22T18:38:44.392Z,47.43
2019-04-22T18:41:02.393Z,50.30
2019-04-22T18:43:42.293Z,50.98
2019-04-22T18:46:27.012Z,52.97
2019-04-22T18:48:46.424Z,54.33
2019-04-22T18:51:29.412Z,54.29
2019-04-22T18:54:05.077Z,50.75
2019-04-22T18:56:32.476Z,47.94
2019-04-22T18:58:59.492Z,50.82
2019-04-22T19:01:23.844Z,49.81
2019-04-22T19:04:05.739Z,53.63
2019-04-22T19:06:50.213Z,50.41
2019-04-22T19:09:29.514Z,50.90
2019-04-22T19:12:08.743Z,51.33
2019-04-22T19:14:35.602Z,53.55
2019-04-22T19:17:12.007Z,54.63
2019-04-22T19:19:56.422Z,55.11
2019-04-22T19:22:09.723Z,56.09
2019-04-22T19:24:39.484Z,54.38
2019-04-22T19:27:15.588Z,57.25
2019-04-22T19:29:54.764Z,57.88
2019-04-22T19:32:29.601Z,57.50
2019-04-22T19:34:53.114Z,57.62
2019-04-22T19:37:29.952Z,58.53
2019-04-22T19:40:10.465Z,58.44
2019-04-22T19:42:43.129Z,58.89
2019-04-22T19:45:10.723Z,58.55
2019-04-22T19:47:50.289Z,59.21
2019-04-22T19:50:23.178Z,59.26
2019-04-22T19:52:53.230Z,59.56
2019-04-22T19:55:29.478Z,58.72
2019-04-22T19:58:00.086Z,59.49
2019-04-22T20:00:37.439Z,59.23
2019-04-22T20:03:29.026Z,58.78
2019-04-22T20:06:16.074Z,59.69
2019-04-22T20:08:51.755Z,59.95
2019-04-22T20:11:26.563Z,59.26
2019-04-22T20:13:59.930Z,59.26
2019-04-22T20:16:25.243Z,59.78
2019-04-22T20:19:10.477Z,59.78
2019-04-22T20:21:36.791Z,59.07
2019-04-22T20:23:57.395Z,59.41
2019-04-22T20:26:45.534Z,59.91
2019-04-22T20:29:21.045Z,59.74
2019-04-22T20:31:49.685Z,59.53
2019-04-22T20:34:25.069Z,55.92
2019-04-22T20:39:34.638Z,57.08
2019-04-22T20:42:19.448Z,57.29
2019-04-22T20:44:39.755Z,60.25
2019-04-22T20:47:10.579Z,60.90
2019-04-22T20:49:48.802Z,59.10
2019-04-22T20:52:26.434Z,59.87
2019-04-22T20:54:50.991Z,61.60
2019-04-22T20:57:23.982Z,61.16
2019-04-22T20:59:57.644Z,61.93
2019-04-22T21:02:23.877Z,62.52
2019-04-22T21:04:54.607Z,62.75
2019-04-22T21:07:31.363Z,62.69
2019-04-22T21:10:08.366Z,62.90
2019-04-22T21:12:36.637Z,61.71
2019-04-22T21:15:26.751Z,62.34
2019-04-22T21:17:53.353Z,62.67
2019-04-22T21:20:34.781Z,63.06
2019-04-22T21:23:04.189Z,62.44
2019-04-22T21:25:25.271Z,61.93
2019-04-22T21:28:16.305Z,60.33
2019-04-22T21:30:43.427Z,62.31
2019-04-22T21:33:13.470Z,63.08
2019-04-22T21:36:03.124Z,63.59
2019-04-22T21:38:26.658Z,63.75
2019-04-22T21:40:55.097Z,63.92
2019-04-22T21:43:33.953Z,64.02
2019-04-22T21:46:10.447Z,64.10
2019-04-22T21:48:57.957Z,64.18
2019-04-22T21:51:10.787Z,64.44
2019-04-22T21:53:51.598Z,64.63
2019-04-22T21:56:40.783Z,64.44
2019-04-22T21:58:55.969Z,64.32
2019-04-22T22:01:41.473Z,63.88
2019-04-22T22:04:12.848Z,64.78
2019-04-22T22:06:37.018Z,64.12
2019-04-22T22:09:23.138Z,64.25
2019-04-22T22:11:49.493Z,63.80
2019-04-22T22:14:22.410Z,64.10
2019-04-22T22:16:50.248Z,63.63
2019-04-22T22:19:28.345Z,62.30
2019-04-22T22:22:05.963Z,63.40
2019-04-22T22:24:38.658Z,62.20
2019-04-22T22:27:10.995Z,63.02
2019-04-22T22:30:05.634Z,63.30
2019-04-22T22:32:19.963Z,63.89
2019-04-22T22:34:50.798Z,63.95
2019-04-22T22:37:14.380Z,63.04
2019-04-22T22:39:50.450Z,62.54
2019-04-22T22:42:21.377Z,62.99
2019-04-22T22:44:48.475Z,62.84
2019-04-22T22:47:38.335Z,61.48
2019-04-22T22:50:09.349Z,62.46
2019-04-22T22:53:03.066Z,63.35
2019-04-22T22:55:18.019Z,63.68
2019-04-22T22:57:50.075Z,63.86
2019-04-22T23:00:25.814Z,63.82
2019-04-22T23:03:23.077Z,63.80
2019-04-22T23:05:37.720Z,64.06
2019-04-22T23:08:16.593Z,63.55
2019-04-22T23:10:57.442Z,64.03
2019-04-22T23:13:22.057Z,63.34
2019-04-22T23:15:48.782Z,63.44
2019-04-22T23:18:05.897Z,63.71
2019-04-22T23:20:43.294Z,64.21
2019-04-22T23:23:33.039Z,63.96
2019-04-22T23:26:04.575Z,64.37
2019-04-22T23:28:34.994Z,64.54
2019-04-22T23:31:10.852Z,64.53
2019-04-22T23:33:54.637Z,64.78
2019-04-22T23:36:22.862Z,64.39
2019-04-22T23:39:03.733Z,64.38
2019-04-22T23:44:16.007Z,64.73
2019-04-22T23:46:41.195Z,64.95
2019-04-22T23:49:20.397Z,65.43
2019-04-22T23:52:07.242Z,65.29
2019-04-22T23:54:31.576Z,65.25
2019-04-22T23:56:57.027Z,65.02
2019-04-22T23:59:43.064Z,65.35
